createdAt,value
2019-03-04T00:01:11.783Z,99.90
2019-03-04T00:03:42.211Z,99.90
2019-03-04T00:06:12.638Z,99.90
2019-03-04T00:08:43.042Z,99.90
2019-03-04T00:11:14.667Z,99.90
2019-03-04T00:13:46.155Z,99.90
2019-03-04T00:16:16.687Z,99.90
2019-03-04T00:18:48.354Z,99.90
2019-03-04T00:21:19.019Z,99.90
2019-03-04T00:23:50.369Z,99.90
2019-03-04T00:26:21.337Z,99.90
2019-03-04T00:28:51.785Z,99.90
2019-03-04T00:31:22.228Z,99.90
2019-03-04T00:33:54.021Z,99.90
2019-03-04T00:36:25.360Z,99.90
2019-03-04T00:38:55.692Z,99.90
2019-03-04T00:41:26.930Z,99.90
2019-03-04T00:43:57.309Z,99.90
2019-03-04T00:46:29.246Z,99.90
2019-03-04T00:48:59.739Z,99.90
2019-03-04T00:51:30.489Z,99.90
2019-03-04T00:54:00.897Z,99.90
2019-03-04T00:56:31.273Z,99.90
2019-03-04T00:59:01.716Z,99.90
2019-03-04T01:01:32.228Z,99.90
2019-03-04T01:04:02.623Z,99.90
2019-03-04T01:06:33.003Z,99.90
2019-03-04T01:09:03.980Z,99.90
2019-03-04T01:11:36.217Z,99.90
2019-03-04T01:14:06.701Z,99.90
2019-03-04T01:16:37.964Z,99.90
2019-03-04T01:19:08.432Z,99.90
2019-03-04T01:21:38.884Z,99.90
2019-03-04T01:24:10.861Z,99.90
2019-03-04T01:26:41.329Z,99.90
2019-03-04T01:29:11.775Z,99.90
2019-03-04T01:31:43.685Z,99.90
2019-03-04T01:34:14.131Z,99.90
2019-03-04T01:36:44.614Z,99.90
2019-03-04T01:39:14.979Z,99.90
2019-03-04T01:41:45.435Z,99.90
2019-03-04T01:44:15.881Z,99.90
2019-03-04T01:46:47.181Z,99.90
2019-03-04T01:49:17.600Z,99.90
2019-03-04T01:51:48.126Z,99.90
2019-03-04T01:54:18.583Z,99.90
2019-03-04T01:56:49.043Z,99.90
2019-03-04T01:59:19.363Z,99.90
2019-03-04T02:01:49.715Z,99.90
2019-03-04T02:04:20.233Z,99.90
2019-03-04T02:06:50.603Z,99.90
2019-03-04T02:09:23.825Z,99.90
2019-03-04T02:11:54.169Z,99.90
2019-03-04T02:14:24.492Z,99.90
2019-03-04T02:16:54.851Z,99.90
2019-03-04T02:19:25.546Z,99.90
2019-03-04T02:22:00.043Z,99.90
2019-03-04T02:24:30.491Z,99.90
2019-03-04T02:27:00.989Z,99.90
2019-03-04T02:29:31.711Z,99.90
2019-03-04T02:32:02.127Z,99.90
2019-03-04T02:34:34.306Z,99.90
2019-03-04T02:37:04.946Z,99.90
2019-03-04T02:39:35.405Z,99.90
2019-03-04T02:42:08.916Z,99.90
2019-03-04T02:44:45.409Z,99.90
2019-03-04T02:47:19.289Z,99.90
2019-03-04T02:49:51.125Z,99.90
2019-03-04T02:52:21.555Z,99.90
2019-03-04T02:54:52.307Z,99.90
2019-03-04T02:57:24.410Z,99.90
2019-03-04T02:59:54.833Z,99.90
2019-03-04T03:02:25.284Z,99.90
2019-03-04T03:04:55.754Z,99.90
2019-03-04T03:07:26.953Z,99.90
2019-03-04T03:09:57.321Z,99.90
2019-03-04T03:12:27.677Z,99.90
2019-03-04T03:14:58.323Z,99.90
2019-03-04T03:17:28.757Z,99.90
2019-03-04T03:19:59.230Z,99.90
2019-03-04T03:22:29.781Z,99.90
2019-03-04T03:25:01.849Z,99.90
2019-03-04T03:27:32.286Z,99.90
2019-03-04T03:30:02.793Z,99.90
2019-03-04T03:32:33.268Z,99.90
2019-03-04T03:35:07.864Z,99.90
2019-03-04T03:37:35.999Z,99.90
2019-03-04T03:40:10.304Z,99.90
2019-03-04T03:42:40.816Z,99.90
2019-03-04T03:45:11.484Z,99.90
2019-03-04T03:47:41.929Z,99.90
2019-03-04T03:50:12.290Z,99.90
2019-03-04T03:52:42.738Z,99.90
2019-03-04T03:55:13.358Z,99.90
2019-03-04T03:57:43.985Z,99.90
2019-03-04T04:00:16.027Z,99.90
2019-03-04T04:02:46.641Z,99.90
2019-03-04T04:05:17.927Z,99.90
2019-03-04T04:07:48.450Z,99.90
2019-03-04T04:10:19.161Z,99.90
2019-03-04T04:12:51.372Z,99.90
2019-03-04T04:15:22.258Z,99.90
2019-03-04T04:17:52.758Z,99.90
2019-03-04T04:20:23.379Z,99.90
2019-03-04T04:22:54.837Z,99.90
2019-03-04T04:25:25.220Z,99.90
2019-03-04T04:27:55.656Z,99.90
2019-03-04T04:30:27.933Z,99.90
2019-03-04T04:32:58.297Z,99.90
2019-03-04T04:35:29.599Z,99.90
2019-03-04T04:38:00.019Z,99.90
2019-03-04T04:40:30.835Z,99.90
2019-03-04T04:43:01.311Z,99.90
2019-03-04T04:45:31.817Z,99.90
2019-03-04T04:48:02.197Z,99.90
2019-03-04T04:50:32.567Z,99.90
2019-03-04T04:53:02.993Z,99.90
2019-03-04T04:55:33.499Z,99.90
2019-03-04T04:58:06.055Z,99.90
2019-03-04T05:00:38.247Z,99.90
2019-03-04T05:03:08.669Z,99.90
2019-03-04T05:05:39.179Z,99.90
2019-03-04T05:08:15.680Z,99.90
2019-03-04T05:10:46.127Z,99.90
2019-03-04T05:13:18.296Z,99.90
2019-03-04T05:15:48.656Z,99.90
2019-03-04T05:18:18.990Z,99.90
2019-03-04T05:20:49.345Z,99.90
2019-03-04T05:23:19.763Z,99.90
2019-03-04T05:25:50.350Z,99.90
2019-03-04T05:28:20.997Z,99.90
2019-03-04T05:30:54.854Z,99.90
2019-03-04T05:33:25.571Z,99.90
2019-03-04T05:35:57.041Z,99.90
2019-03-04T05:38:27.469Z,99.90
2019-03-04T05:40:57.993Z,99.90
2019-03-04T05:43:34.836Z,99.90
2019-03-04T05:46:08.492Z,99.90
2019-03-04T05:48:39.317Z,99.90
2019-03-04T05:51:15.517Z,99.90
2019-03-04T05:53:45.900Z,99.90
2019-03-04T05:56:16.440Z,99.90
2019-03-04T05:58:46.924Z,99.90
2019-03-04T06:01:28.816Z,99.90
2019-03-04T06:04:02.066Z,99.90
2019-03-04T06:06:43.429Z,99.90
2019-03-04T06:09:15.711Z,99.90
2019-03-04T06:11:46.105Z,99.90
2019-03-04T06:14:16.560Z,99.90
2019-03-04T06:16:47.628Z,99.90
2019-03-04T06:19:20.275Z,99.90
2019-03-04T06:21:50.804Z,99.90
2019-03-04T06:24:21.227Z,99.90
2019-03-04T06:26:51.685Z,99.90
2019-03-04T06:29:22.111Z,99.90
2019-03-04T06:31:52.515Z,99.90
2019-03-04T06:34:22.885Z,99.90
2019-03-04T06:36:55.259Z,99.90
2019-03-04T06:39:25.635Z,99.90
2019-03-04T06:41:56.088Z,99.90
2019-03-04T06:44:28.156Z,99.90
2019-03-04T06:46:59.224Z,99.90
2019-03-04T06:49:29.771Z,99.90
2019-03-04T06:52:00.880Z,99.90
2019-03-04T06:54:55.556Z,99.90
2019-03-04T06:57:29.736Z,99.90
2019-03-04T07:00:33.180Z,99.90
2019-03-04T07:03:08.276Z,99.90
2019-03-04T07:05:47.554Z,99.90
2019-03-04T07:08:59.726Z,99.90
2019-03-04T07:11:30.898Z,99.90
2019-03-04T07:14:01.287Z,99.90
2019-03-04T07:16:32.218Z,99.90
2019-03-04T07:19:06.624Z,99.90
2019-03-04T07:21:37.028Z,99.90
2019-03-04T07:24:11.220Z,99.90
2019-03-04T07:26:42.118Z,99.90
2019-03-04T07:29:14.926Z,99.90
2019-03-04T07:31:44.889Z,99.90
2019-03-04T07:34:15.281Z,99.90
2019-03-04T07:36:45.752Z,99.90
2019-03-04T07:39:18.043Z,99.90
2019-03-04T07:41:56.148Z,99.90
2019-03-04T07:44:26.642Z,99.90
2019-03-04T07:46:57.072Z,99.90
2019-03-04T07:49:28.344Z,99.90
2019-03-04T07:51:58.720Z,99.90
2019-03-04T07:54:30.699Z,99.90
2019-03-04T07:57:01.168Z,99.90
2019-03-04T07:59:31.600Z,99.90
2019-03-04T08:02:02.019Z,99.90
2019-03-04T08:04:32.379Z,99.90
2019-03-04T08:07:48.549Z,99.90
2019-03-04T08:10:46.857Z,99.90
2019-03-04T08:13:21.029Z,99.90
2019-03-04T08:15:54.199Z,99.90
2019-03-04T08:18:24.709Z,99.90
2019-03-04T08:20:55.053Z,99.90
2019-03-04T08:23:25.387Z,99.90
2019-03-04T08:26:02.078Z,99.90
2019-03-04T08:28:32.508Z,99.90
2019-03-04T08:31:04.843Z,99.90
2019-03-04T08:33:37.181Z,99.90
2019-03-04T08:36:08.149Z,99.90
2019-03-04T08:38:38.625Z,99.90
2019-03-04T08:41:09.129Z,99.90
2019-03-04T08:43:39.613Z,99.90
2019-03-04T08:46:10.185Z,99.90
2019-03-04T08:48:40.591Z,99.90
2019-03-04T08:51:15.229Z,99.90
2019-03-04T08:53:45.500Z,99.90
2019-03-04T08:56:26.263Z,99.90
2019-03-04T08:58:56.704Z,99.90
2019-03-04T09:01:27.160Z,99.90
2019-03-04T09:03:57.476Z,99.90
2019-03-04T09:06:28.847Z,99.90
2019-03-04T09:08:59.215Z,99.90
2019-03-04T09:11:29.660Z,99.90
2019-03-04T09:14:00.080Z,99.90
2019-03-04T09:16:30.816Z,99.90
2019-03-04T09:19:01.388Z,99.90
2019-03-04T09:21:31.726Z,99.90
2019-03-04T09:24:02.154Z,99.90
2019-03-04T09:26:32.646Z,99.90
2019-03-04T09:29:04.769Z,99.90
2019-03-04T09:31:35.403Z,99.90
2019-03-04T09:34:05.783Z,99.90
2019-03-04T09:36:37.171Z,99.90
2019-03-04T09:39:09.869Z,99.90
2019-03-04T09:41:40.421Z,99.90
2019-03-04T09:44:10.859Z,99.90
2019-03-04T09:46:41.370Z,99.90
2019-03-04T09:49:11.746Z,99.90
2019-03-04T09:51:42.202Z,99.90
2019-03-04T09:54:12.701Z,99.90
2019-03-04T09:56:43.386Z,99.90
2019-03-04T09:59:13.720Z,99.90
2019-03-04T10:01:51.918Z,99.90
2019-03-04T10:04:59.340Z,99.90
2019-03-04T10:08:32.409Z,99.90
2019-03-04T10:11:36.256Z,99.90
2019-03-04T10:14:45.200Z,99.90
2019-03-04T10:17:39.273Z,99.90
2019-03-04T10:20:53.783Z,99.90
2019-03-04T10:23:33.790Z,99.90
2019-03-04T10:26:43.394Z,99.90
2019-03-04T10:30:09.430Z,99.90
2019-03-04T10:32:54.770Z,99.90
2019-03-04T10:35:38.585Z,99.90
2019-03-04T10:38:50.051Z,99.90
2019-03-04T10:41:49.297Z,99.90
2019-03-04T10:45:04.404Z,99.90
2019-03-04T10:47:36.454Z,99.90
2019-03-04T10:50:08.888Z,99.90
2019-03-04T10:52:39.315Z,99.90
2019-03-04T10:55:10.761Z,99.90
2019-03-04T10:57:42.895Z,99.90
2019-03-04T11:00:16.273Z,99.90
2019-03-04T11:02:46.847Z,99.90
2019-03-04T11:05:18.400Z,99.90
2019-03-04T11:07:50.584Z,99.90
2019-03-04T11:10:21.182Z,99.90
2019-03-04T11:12:51.732Z,99.90
2019-03-04T11:15:25.902Z,99.90
2019-03-04T11:17:56.375Z,99.90
2019-03-04T11:20:26.900Z,99.90
2019-03-04T11:22:57.410Z,99.90
2019-03-04T11:25:34.963Z,99.90
2019-03-04T11:28:05.482Z,99.90
2019-03-04T11:30:42.185Z,99.90
2019-03-04T11:33:18.564Z,99.90
2019-03-04T11:35:50.765Z,99.90
2019-03-04T11:38:41.698Z,99.90
2019-03-04T11:41:15.320Z,99.90
2019-03-04T11:43:45.893Z,99.90
2019-03-04T11:46:18.425Z,95.50
2019-03-04T11:48:48.928Z,99.90
2019-03-04T11:51:19.297Z,99.90
2019-03-04T11:53:49.713Z,99.90
2019-03-04T11:56:20.008Z,99.90
2019-03-04T11:58:51.192Z,99.90
2019-03-04T12:01:36.856Z,99.90
2019-03-04T12:04:07.887Z,99.90
2019-03-04T12:06:38.237Z,99.90
2019-03-04T12:09:13.869Z,99.90
2019-03-04T12:11:44.268Z,99.90
2019-03-04T12:14:14.824Z,99.90
2019-03-04T12:16:45.227Z,91.70
2019-03-04T12:19:15.581Z,85.60
2019-03-04T12:21:45.971Z,88.20
2019-03-04T12:24:16.338Z,83.00
2019-03-04T12:26:46.652Z,86.50
2019-03-04T12:29:17.361Z,95.20
2019-03-04T12:31:59.608Z,94.20
2019-03-04T12:34:30.002Z,89.90
2019-03-04T12:37:00.345Z,88.50
2019-03-04T12:39:30.660Z,88.00
2019-03-04T12:42:00.969Z,76.30
2019-03-04T12:44:31.397Z,79.50
2019-03-04T12:47:02.660Z,90.80
2019-03-04T12:49:33.171Z,82.60
2019-03-04T12:52:03.753Z,84.20
2019-03-04T12:54:34.124Z,77.50
2019-03-04T12:57:04.571Z,79.70
2019-03-04T12:59:34.980Z,80.00
2019-03-04T13:02:05.573Z,79.30
2019-03-04T13:04:43.323Z,76.00
2019-03-04T13:07:15.537Z,78.30
2019-03-04T13:09:46.051Z,74.90
2019-03-04T13:12:16.445Z,71.20
2019-03-04T13:14:46.790Z,68.90
2019-03-04T13:17:17.343Z,64.30
2019-03-04T13:19:47.736Z,62.10
2019-03-04T13:22:18.095Z,70.40
2019-03-04T13:24:48.552Z,68.00
2019-03-04T13:27:23.838Z,70.30
2019-03-04T13:29:51.335Z,63.70
2019-03-04T13:32:21.733Z,64.90
2019-03-04T13:34:52.127Z,63.70
2019-03-04T13:37:22.728Z,60.80
2019-03-04T13:39:53.107Z,57.10
2019-03-04T13:42:24.115Z,58.40
2019-03-04T13:44:54.697Z,61.10
2019-03-04T13:47:25.156Z,64.40
2019-03-04T13:49:55.590Z,66.60
2019-03-04T13:52:26.858Z,68.10
2019-03-04T13:54:57.200Z,67.90
2019-03-04T13:57:27.515Z,67.10
2019-03-04T13:59:58.933Z,67.30
2019-03-04T14:02:29.349Z,66.80
2019-03-04T14:05:00.715Z,71.40
2019-03-04T14:07:31.069Z,73.50
2019-03-04T14:10:01.470Z,75.40
2019-03-04T14:12:32.842Z,78.80
2019-03-04T14:15:03.233Z,83.80
2019-03-04T14:17:34.899Z,89.90
2019-03-04T14:20:05.960Z,92.20
2019-03-04T14:22:40.279Z,94.10
2019-03-04T14:25:09.326Z,95.50
2019-03-04T14:27:41.347Z,99.90
2019-03-04T14:30:14.737Z,99.90
2019-03-04T14:32:45.865Z,99.90
2019-03-04T14:35:16.319Z,99.90
2019-03-04T14:37:46.841Z,99.90
2019-03-04T14:40:17.428Z,99.90
2019-03-04T14:42:47.960Z,99.90
2019-03-04T14:45:19.369Z,99.90
2019-03-04T14:47:49.884Z,99.90
2019-03-04T14:50:20.485Z,99.90
2019-03-04T14:52:51.026Z,99.90
2019-03-04T14:55:21.547Z,99.90
2019-03-04T14:57:52.436Z,99.90
2019-03-04T15:00:28.519Z,99.90
2019-03-04T15:02:58.941Z,99.90
2019-03-04T15:05:29.717Z,99.90
2019-03-04T15:08:03.079Z,99.90
2019-03-04T15:10:33.876Z,99.90
2019-03-04T15:13:04.373Z,99.90
2019-03-04T15:15:34.917Z,99.90
2019-03-04T15:18:06.632Z,99.90
2019-03-04T15:20:37.238Z,99.90
2019-03-04T15:23:09.638Z,99.90
2019-03-04T15:25:41.167Z,99.90
2019-03-04T15:28:13.692Z,99.90
2019-03-04T15:30:45.109Z,99.90
2019-03-04T15:33:18.840Z,99.90
2019-03-04T15:35:49.682Z,99.90
2019-03-04T15:38:20.207Z,99.90
2019-03-04T15:40:51.032Z,99.90
2019-03-04T15:43:22.088Z,99.90
2019-03-04T15:45:53.535Z,99.90
2019-03-04T15:48:25.513Z,99.90
2019-03-04T15:50:55.962Z,99.90
2019-03-04T15:53:26.550Z,99.90
2019-03-04T15:56:01.941Z,99.90
2019-03-04T15:58:32.439Z,99.90
2019-03-04T16:01:06.629Z,99.90
2019-03-04T16:03:37.188Z,99.90
2019-03-04T16:06:08.000Z,99.90
2019-03-04T16:08:38.498Z,99.90
2019-03-04T16:11:09.067Z,99.90
2019-03-04T16:13:39.773Z,99.90
2019-03-04T16:16:10.346Z,99.90
2019-03-04T16:18:40.820Z,99.90
2019-03-04T16:21:11.389Z,99.90
2019-03-04T16:23:44.617Z,99.90
2019-03-04T16:26:23.285Z,99.90
2019-03-04T16:30:57.733Z,99.90
2019-03-04T16:31:39.147Z,99.90
2019-03-04T16:34:09.603Z,99.90
2019-03-04T16:36:40.063Z,99.90
2019-03-04T16:39:10.961Z,99.90
2019-03-04T16:41:41.418Z,99.90
2019-03-04T16:44:12.907Z,99.90
2019-03-04T16:46:45.391Z,99.90
2019-03-04T16:49:15.937Z,99.90
2019-03-04T16:51:46.402Z,99.90
2019-03-04T16:54:16.821Z,99.90
2019-03-04T16:56:47.182Z,99.90
2019-03-04T16:59:18.719Z,99.90
2019-03-04T17:01:49.199Z,99.90
2019-03-04T17:04:19.678Z,99.90
2019-03-04T17:06:50.760Z,99.90
2019-03-04T17:09:21.846Z,99.90
2019-03-04T17:11:52.322Z,99.90
2019-03-04T17:14:22.794Z,99.90
2019-03-04T17:16:53.324Z,99.90
2019-03-04T17:19:29.021Z,99.90
2019-03-04T17:21:59.419Z,99.90
2019-03-04T17:24:32.508Z,99.90
2019-03-04T17:27:09.058Z,99.90
2019-03-04T17:29:39.453Z,99.90
2019-03-04T17:32:10.112Z,99.90
2019-03-04T17:34:40.552Z,99.90
2019-03-04T17:37:11.089Z,99.90
2019-03-04T17:39:47.272Z,99.90
2019-03-04T17:42:17.611Z,99.90
2019-03-04T17:44:48.257Z,99.90
2019-03-04T17:47:18.737Z,99.90
2019-03-04T17:49:51.169Z,99.90
2019-03-04T17:52:21.585Z,99.90
2019-03-04T17:54:55.833Z,99.90
2019-03-04T17:57:26.287Z,99.90
2019-03-04T17:59:56.675Z,99.90
2019-03-04T18:02:27.259Z,99.90
2019-03-04T18:04:57.658Z,99.90
2019-03-04T18:07:27.988Z,99.90
2019-03-04T18:09:58.979Z,99.90
2019-03-04T18:12:29.572Z,99.90
2019-03-04T18:14:59.955Z,99.90
2019-03-04T18:17:30.384Z,99.90
2019-03-04T18:20:01.664Z,99.90
2019-03-04T18:22:33.149Z,99.90
2019-03-04T18:25:03.698Z,99.90
2019-03-04T18:27:40.715Z,99.90
2019-03-04T18:30:35.525Z,99.90
2019-03-04T18:33:35.169Z,99.90
2019-03-04T18:37:04.935Z,99.90
2019-03-04T18:40:21.611Z,99.90
2019-03-04T18:43:20.463Z,99.90
2019-03-04T18:46:17.560Z,99.90
2019-03-04T18:48:56.791Z,99.90
2019-03-04T18:51:29.058Z,99.90
2019-03-04T18:54:05.621Z,99.90
2019-03-04T18:56:36.384Z,99.90
2019-03-04T18:59:06.943Z,99.90
2019-03-04T19:01:37.423Z,99.90
2019-03-04T19:04:07.884Z,99.90
2019-03-04T19:06:38.497Z,99.90
2019-03-04T19:09:10.082Z,99.90
2019-03-04T19:11:42.275Z,99.90
2019-03-04T19:14:13.481Z,99.90
2019-03-04T19:16:43.871Z,99.90
2019-03-04T19:19:14.291Z,99.90
2019-03-04T19:21:44.691Z,99.90
2019-03-04T19:24:16.998Z,99.90
2019-03-04T19:26:48.591Z,99.90
2019-03-04T19:29:19.085Z,99.90
2019-03-04T19:31:49.466Z,99.90
2019-03-04T19:34:19.876Z,99.90
2019-03-04T19:36:50.301Z,99.90
2019-03-04T19:39:20.850Z,99.90
2019-03-04T19:41:51.304Z,99.90
2019-03-04T19:44:21.736Z,99.90
2019-03-04T19:46:53.889Z,99.90
2019-03-04T19:49:24.540Z,99.90
2019-03-04T19:51:55.000Z,99.90
2019-03-04T19:54:25.656Z,99.90
2019-03-04T19:56:56.144Z,99.90
2019-03-04T19:59:26.514Z,99.90
2019-03-04T20:01:57.058Z,99.90
2019-03-04T20:04:27.464Z,99.90
2019-03-04T20:06:57.951Z,99.90
2019-03-04T20:09:28.385Z,99.90
2019-03-04T20:12:00.845Z,99.90
2019-03-04T20:14:31.219Z,99.90
2019-03-04T20:17:02.541Z,99.90
2019-03-04T20:19:33.000Z,99.90
2019-03-04T20:22:03.469Z,99.90
2019-03-04T20:24:33.937Z,99.90
2019-03-04T20:27:04.871Z,99.90
2019-03-04T20:29:35.225Z,99.90
2019-03-04T20:32:05.651Z,99.90
2019-03-04T20:34:36.099Z,99.90
2019-03-04T20:37:06.709Z,99.90
2019-03-04T20:39:37.172Z,99.90
2019-03-04T20:42:07.617Z,99.90
2019-03-04T20:44:38.013Z,99.90
2019-03-04T20:47:09.477Z,99.90
2019-03-04T20:49:39.993Z,99.90
2019-03-04T20:52:10.528Z,99.90
2019-03-04T20:54:43.324Z,99.90
2019-03-04T20:57:14.533Z,99.90
2019-03-04T20:59:44.979Z,99.90
2019-03-04T21:02:15.680Z,99.90
2019-03-04T21:04:46.150Z,99.90
2019-03-04T21:07:17.287Z,99.90
2019-03-04T21:09:47.689Z,99.90
2019-03-04T21:12:18.984Z,99.90
2019-03-04T21:14:50.431Z,99.90
2019-03-04T21:17:21.019Z,99.90
2019-03-04T21:19:51.533Z,99.90
2019-03-04T21:22:22.025Z,99.90
2019-03-04T21:24:53.278Z,99.90
2019-03-04T21:27:23.745Z,99.90
2019-03-04T21:30:31.578Z,99.90
2019-03-04T21:33:40.087Z,99.90
2019-03-04T21:36:44.571Z,99.90
2019-03-04T21:39:15.196Z,99.90
2019-03-04T21:42:16.474Z,99.90
2019-03-04T21:45:25.915Z,99.90
2019-03-04T21:48:10.043Z,99.90
2019-03-04T21:50:51.852Z,99.90
2019-03-04T21:53:34.984Z,99.90
2019-03-04T21:56:38.512Z,99.90
2019-03-04T21:59:08.939Z,99.90
2019-03-04T22:01:43.978Z,99.90
2019-03-04T22:04:14.589Z,99.90
2019-03-04T22:06:45.209Z,99.90
2019-03-04T22:09:15.538Z,99.90
2019-03-04T22:11:46.096Z,99.90
2019-03-04T22:14:16.719Z,99.90
2019-03-04T22:16:47.742Z,99.90
2019-03-04T22:19:19.933Z,99.90
2019-03-04T22:21:50.490Z,99.90
2019-03-04T22:24:20.867Z,99.90
2019-03-04T22:26:51.325Z,99.90
2019-03-04T22:29:21.762Z,99.90
2019-03-04T22:31:53.439Z,99.90
2019-03-04T22:34:23.794Z,99.90
2019-03-04T22:36:54.185Z,99.90
2019-03-04T22:39:24.631Z,99.90
2019-03-04T22:41:55.456Z,99.90
2019-03-04T22:44:26.917Z,99.90
2019-03-04T22:46:57.231Z,99.90
2019-03-04T22:49:27.589Z,99.90
2019-03-04T22:51:57.968Z,99.90
2019-03-04T22:54:28.378Z,99.90
2019-03-04T22:56:58.803Z,99.90
2019-03-04T22:59:31.035Z,99.90
2019-03-04T23:02:03.728Z,99.90
2019-03-04T23:05:08.110Z,99.90
2019-03-04T23:07:44.314Z,99.90
2019-03-04T23:10:29.401Z,99.90
2019-03-04T23:13:05.613Z,99.90
2019-03-04T23:15:36.028Z,99.90
2019-03-04T23:18:07.633Z,99.90
2019-03-04T23:20:38.071Z,99.90
2019-03-04T23:23:10.577Z,99.90
2019-03-04T23:25:41.776Z,99.90
2019-03-04T23:28:12.153Z,99.90
2019-03-04T23:30:42.589Z,99.90
2019-03-04T23:33:13.176Z,99.90
2019-03-04T23:35:43.850Z,99.90
2019-03-04T23:38:14.277Z,99.90
2019-03-04T23:40:44.579Z,99.90
2019-03-04T23:43:15.084Z,99.90
2019-03-04T23:45:45.491Z,99.90
2019-03-04T23:48:15.936Z,99.90
2019-03-04T23:50:46.405Z,99.90
2019-03-04T23:53:16.892Z,99.90
2019-03-04T23:55:47.332Z,99.90
2019-03-04T23:58:17.978Z,99.90
